sensor_id;sensor_type;location;lat;lon;timestamp;P1;durP1;ratioP1;P2;durP2;ratioP2
24173;SDS011;12324;48.146;11.502;2023-06-22T00:01:19;9.70;;;3.63;;
24173;SDS011;12324;48.146;11.502;2023-06-22T00:03:46;9.15;;;3.80;;
24173;SDS011;12324;48.146;11.502;2023-06-22T00:06:12;12.70;;;3.75;;
24173;SDS011;12324;48.146;11.502;2023-06-22T00:08:39;7.38;;;3.08;;
24173;SDS011;12324;48.146;11.502;2023-06-22T00:11:06;10.25;;;3.80;;
24173;SDS011;12324;48.146;11.502;2023-06-22T00:13:33;10.65;;;3.90;;
24173;SDS011;12324;48.146;11.502;2023-06-22T00:16:00;9.55;;;3.55;;
24173;SDS011;12324;48.146;11.502;2023-06-22T00:18:27;9.88;;;3.15;;
24173;SDS011;12324;48.146;11.502;2023-06-22T00:20:54;8.15;;;3.38;;
24173;SDS011;12324;48.146;11.502;2023-06-22T00:23:24;7.28;;;3.00;;
24173;SDS011;12324;48.146;11.502;2023-06-22T00:25:51;9.65;;;3.58;;
24173;SDS011;12324;48.146;11.502;2023-06-22T00:28:18;11.48;;;3.58;;
24173;SDS011;12324;48.146;11.502;2023-06-22T00:30:45;10.10;;;3.03;;
24173;SDS011;12324;48.146;11.502;2023-06-22T00:33:12;11.20;;;3.55;;
24173;SDS011;12324;48.146;11.502;2023-06-22T00:35:38;7.78;;;3.03;;
24173;SDS011;12324;48.146;11.502;2023-06-22T00:38:08;6.43;;;3.20;;
24173;SDS011;12324;48.146;11.502;2023-06-22T00:40:35;6.35;;;2.85;;
24173;SDS011;12324;48.146;11.502;2023-06-22T00:43:02;10.20;;;4.25;;
24173;SDS011;12324;48.146;11.502;2023-06-22T00:45:29;10.00;;;4.22;;
24173;SDS011;12324;48.146;11.502;2023-06-22T00:47:56;10.88;;;3.75;;
24173;SDS011;12324;48.146;11.502;2023-06-22T00:50:25;9.80;;;3.60;;
24173;SDS011;12324;48.146;11.502;2023-06-22T00:52:57;9.65;;;3.70;;
24173;SDS011;12324;48.146;11.502;2023-06-22T00:55:26;9.10;;;3.38;;
24173;SDS011;12324;48.146;11.502;2023-06-22T00:57:53;8.27;;;3.65;;
24173;SDS011;12324;48.146;11.502;2023-06-22T01:00:23;8.77;;;3.53;;
24173;SDS011;12324;48.146;11.502;2023-06-22T01:02:52;9.00;;;3.60;;
24173;SDS011;12324;48.146;11.502;2023-06-22T01:05:20;12.57;;;4.15;;
24173;SDS011;12324;48.146;11.502;2023-06-22T01:08:03;7.10;;;2.83;;
24173;SDS011;12324;48.146;11.502;2023-06-22T01:10:55;11.38;;;3.90;;
24173;SDS011;12324;48.146;11.502;2023-06-22T01:13:52;10.30;;;4.32;;
24173;SDS011;12324;48.146;11.502;2023-06-22T01:16:26;8.45;;;3.08;;
24173;SDS011;12324;48.146;11.502;2023-06-22T01:19:01;9.75;;;3.22;;
24173;SDS011;12324;48.146;11.502;2023-06-22T01:21:36;13.10;;;3.58;;
24173;SDS011;12324;48.146;11.502;2023-06-22T01:26:42;11.07;;;3.45;;
24173;SDS011;12324;48.146;11.502;2023-06-22T01:29:20;9.45;;;3.15;;
24173;SDS011;12324;48.146;11.502;2023-06-22T01:31:49;10.27;;;3.60;;
24173;SDS011;12324;48.146;11.502;2023-06-22T01:34:17;6.70;;;3.28;;
24173;SDS011;12324;48.146;11.502;2023-06-22T01:36:44;8.95;;;3.88;;
24173;SDS011;12324;48.146;11.502;2023-06-22T01:39:12;7.45;;;3.40;;
24173;SDS011;12324;48.146;11.502;2023-06-22T01:41:39;7.47;;;3.25;;
24173;SDS011;12324;48.146;11.502;2023-06-22T01:44:09;7.85;;;3.38;;
24173;SDS011;12324;48.146;11.502;2023-06-22T01:46:36;9.40;;;3.50;;
24173;SDS011;12324;48.146;11.502;2023-06-22T01:49:04;9.43;;;3.80;;
24173;SDS011;12324;48.146;11.502;2023-06-22T01:51:32;9.57;;;4.35;;
24173;SDS011;12324;48.146;11.502;2023-06-22T01:53:59;9.50;;;4.22;;
24173;SDS011;12324;48.146;11.502;2023-06-22T01:56:25;6.97;;;3.10;;
24173;SDS011;12324;48.146;11.502;2023-06-22T01:59:37;6.65;;;3.30;;
24173;SDS011;12324;48.146;11.502;2023-06-22T02:02:03;8.80;;;3.40;;
24173;SDS011;12324;48.146;11.502;2023-06-22T02:04:56;10.85;;;4.05;;
24173;SDS011;12324;48.146;11.502;2023-06-22T02:07:28;8.77;;;4.10;;
24173;SDS011;12324;48.146;11.502;2023-06-22T02:09:58;7.65;;;3.65;;
24173;SDS011;12324;48.146;11.502;2023-06-22T02:12:26;9.43;;;3.38;;
24173;SDS011;12324;48.146;11.502;2023-06-22T02:14:54;10.02;;;3.95;;
24173;SDS011;12324;48.146;11.502;2023-06-22T02:17:22;8.05;;;3.53;;
24173;SDS011;12324;48.146;11.502;2023-06-22T02:19:51;7.05;;;3.13;;
24173;SDS011;12324;48.146;11.502;2023-06-22T02:22:18;6.93;;;3.58;;
24173;SDS011;12324;48.146;11.502;2023-06-22T02:24:45;11.02;;;3.97;;
24173;SDS011;12324;48.146;11.502;2023-06-22T02:27:11;11.10;;;3.63;;
24173;SDS011;12324;48.146;11.502;2023-06-22T02:29:38;13.10;;;4.57;;
24173;SDS011;12324;48.146;11.502;2023-06-22T02:32:05;7.85;;;3.50;;
24173;SDS011;12324;48.146;11.502;2023-06-22T02:34:32;7.75;;;3.80;;
24173;SDS011;12324;48.146;11.502;2023-06-22T02:37:00;8.65;;;3.47;;
24173;SDS011;12324;48.146;11.502;2023-06-22T02:39:29;7.95;;;3.70;;
24173;SDS011;12324;48.146;11.502;2023-06-22T02:41:55;8.25;;;3.53;;
24173;SDS011;12324;48.146;11.502;2023-06-22T02:44:22;8.90;;;3.63;;
24173;SDS011;12324;48.146;11.502;2023-06-22T02:46:49;9.23;;;3.75;;
24173;SDS011;12324;48.146;11.502;2023-06-22T02:49:16;10.85;;;4.50;;
24173;SDS011;12324;48.146;11.502;2023-06-22T02:51:46;9.98;;;3.97;;
24173;SDS011;12324;48.146;11.502;2023-06-22T02:54:14;9.60;;;3.80;;
24173;SDS011;12324;48.146;11.502;2023-06-22T02:56:41;9.07;;;3.50;;
24173;SDS011;12324;48.146;11.502;2023-06-22T02:59:10;11.30;;;4.07;;
24173;SDS011;12324;48.146;11.502;2023-06-22T03:01:37;10.95;;;4.25;;
24173;SDS011;12324;48.146;11.502;2023-06-22T03:04:06;9.85;;;3.75;;
24173;SDS011;12324;48.146;11.502;2023-06-22T03:06:34;9.00;;;3.92;;
24173;SDS011;12324;48.146;11.502;2023-06-22T03:09:04;12.50;;;4.55;;
24173;SDS011;12324;48.146;11.502;2023-06-22T03:11:32;7.75;;;3.72;;
24173;SDS011;12324;48.146;11.502;2023-06-22T03:14:02;8.40;;;3.63;;
24173;SDS011;12324;48.146;11.502;2023-06-22T03:16:29;13.57;;;4.18;;
24173;SDS011;12324;48.146;11.502;2023-06-22T03:18:55;10.13;;;4.15;;
24173;SDS011;12324;48.146;11.502;2023-06-22T03:21:23;8.57;;;3.80;;
24173;SDS011;12324;48.146;11.502;2023-06-22T03:23:50;13.48;;;4.65;;
24173;SDS011;12324;48.146;11.502;2023-06-22T03:26:17;9.35;;;4.05;;
24173;SDS011;12324;48.146;11.502;2023-06-22T03:28:44;10.93;;;4.30;;
24173;SDS011;12324;48.146;11.502;2023-06-22T03:31:11;9.23;;;3.90;;
24173;SDS011;12324;48.146;11.502;2023-06-22T03:33:38;12.85;;;4.40;;
24173;SDS011;12324;48.146;11.502;2023-06-22T03:36:04;13.50;;;5.43;;
24173;SDS011;12324;48.146;11.502;2023-06-22T03:38:32;9.65;;;4.43;;
24173;SDS011;12324;48.146;11.502;2023-06-22T03:40:59;10.38;;;4.13;;
24173;SDS011;12324;48.146;11.502;2023-06-22T03:43:25;13.18;;;4.57;;
24173;SDS011;12324;48.146;11.502;2023-06-22T03:45:55;9.30;;;4.55;;
24173;SDS011;12324;48.146;11.502;2023-06-22T03:48:22;13.00;;;4.82;;
24173;SDS011;12324;48.146;11.502;2023-06-22T03:50:49;12.20;;;4.63;;
24173;SDS011;12324;48.146;11.502;2023-06-22T03:53:16;10.68;;;4.57;;
24173;SDS011;12324;48.146;11.502;2023-06-22T03:55:49;10.45;;;4.25;;
24173;SDS011;12324;48.146;11.502;2023-06-22T03:58:19;6.32;;;3.17;;
24173;SDS011;12324;48.146;11.502;2023-06-22T04:00:46;9.55;;;4.70;;
24173;SDS011;12324;48.146;11.502;2023-06-22T04:03:17;10.70;;;4.40;;
24173;SDS011;12324;48.146;11.502;2023-06-22T04:05:47;11.77;;;4.78;;
24173;SDS011;12324;48.146;11.502;2023-06-22T04:08:15;9.57;;;4.68;;
24173;SDS011;12324;48.146;11.502;2023-06-22T04:10:42;10.48;;;4.40;;
24173;SDS011;12324;48.146;11.502;2023-06-22T04:15:56;10.32;;;4.65;;
24173;SDS011;12324;48.146;11.502;2023-06-22T04:18:23;11.73;;;4.90;;
24173;SDS011;12324;48.146;11.502;2023-06-22T04:20:50;13.07;;;4.57;;
24173;SDS011;12324;48.146;11.502;2023-06-22T04:23:16;12.10;;;4.85;;
24173;SDS011;12324;48.146;11.502;2023-06-22T04:25:43;11.25;;;4.90;;
24173;SDS011;12324;48.146;11.502;2023-06-22T04:28:10;11.85;;;4.88;;
24173;SDS011;12324;48.146;11.502;2023-06-22T04:30:38;13.55;;;4.82;;
24173;SDS011;12324;48.146;11.502;2023-06-22T04:33:13;13.93;;;4.15;;
24173;SDS011;12324;48.146;11.502;2023-06-22T04:35:41;12.93;;;5.25;;
24173;SDS011;12324;48.146;11.502;2023-06-22T04:38:08;10.95;;;4.60;;
24173;SDS011;12324;48.146;11.502;2023-06-22T04:40:35;10.30;;;4.43;;
24173;SDS011;12324;48.146;11.502;2023-06-22T04:43:01;16.02;;;5.18;;
24173;SDS011;12324;48.146;11.502;2023-06-22T04:45:29;11.15;;;4.85;;
24173;SDS011;12324;48.146;11.502;2023-06-22T04:47:56;10.18;;;4.95;;
24173;SDS011;12324;48.146;11.502;2023-06-22T04:50:22;14.50;;;4.95;;
24173;SDS011;12324;48.146;11.502;2023-06-22T04:52:50;11.65;;;5.57;;
24173;SDS011;12324;48.146;11.502;2023-06-22T04:55:17;12.88;;;4.85;;
24173;SDS011;12324;48.146;11.502;2023-06-22T04:57:46;13.00;;;5.05;;
24173;SDS011;12324;48.146;11.502;2023-06-22T05:00:19;12.80;;;6.10;;
24173;SDS011;12324;48.146;11.502;2023-06-22T05:02:49;11.90;;;5.40;;
24173;SDS011;12324;48.146;11.502;2023-06-22T05:05:16;11.40;;;5.03;;
24173;SDS011;12324;48.146;11.502;2023-06-22T05:07:43;11.80;;;5.43;;
24173;SDS011;12324;48.146;11.502;2023-06-22T05:10:12;15.48;;;5.53;;
24173;SDS011;12324;48.146;11.502;2023-06-22T05:12:39;12.18;;;5.35;;
24173;SDS011;12324;48.146;11.502;2023-06-22T05:15:07;10.63;;;4.88;;
24173;SDS011;12324;48.146;11.502;2023-06-22T05:17:35;13.40;;;5.78;;
24173;SDS011;12324;48.146;11.502;2023-06-22T05:20:03;12.95;;;6.65;;
24173;SDS011;12324;48.146;11.502;2023-06-22T05:22:32;9.93;;;4.72;;
24173;SDS011;12324;48.146;11.502;2023-06-22T05:24:59;13.48;;;5.20;;
24173;SDS011;12324;48.146;11.502;2023-06-22T05:27:26;11.30;;;4.88;;
24173;SDS011;12324;48.146;11.502;2023-06-22T05:29:53;12.73;;;5.43;;
24173;SDS011;12324;48.146;11.502;2023-06-22T05:32:19;12.48;;;5.13;;
24173;SDS011;12324;48.146;11.502;2023-06-22T05:34:47;11.68;;;5.55;;
24173;SDS011;12324;48.146;11.502;2023-06-22T05:37:14;12.93;;;5.68;;
24173;SDS011;12324;48.146;11.502;2023-06-22T05:39:41;16.20;;;6.38;;
24173;SDS011;12324;48.146;11.502;2023-06-22T05:42:08;14.27;;;6.03;;
24173;SDS011;12324;48.146;11.502;2023-06-22T05:44:36;13.73;;;6.18;;
24173;SDS011;12324;48.146;11.502;2023-06-22T05:47:05;12.52;;;6.05;;
24173;SDS011;12324;48.146;11.502;2023-06-22T05:49:32;15.23;;;6.50;;
24173;SDS011;12324;48.146;11.502;2023-06-22T05:51:59;16.08;;;6.30;;
24173;SDS011;12324;48.146;11.502;2023-06-22T05:54:27;12.00;;;5.97;;
24173;SDS011;12324;48.146;11.502;2023-06-22T05:56:54;12.50;;;5.30;;
24173;SDS011;12324;48.146;11.502;2023-06-22T05:59:21;14.13;;;6.45;;
24173;SDS011;12324;48.146;11.502;2023-06-22T06:01:47;13.23;;;6.43;;
24173;SDS011;12324;48.146;11.502;2023-06-22T06:04:18;14.35;;;5.38;;
24173;SDS011;12324;48.146;11.502;2023-06-22T06:06:45;12.50;;;6.03;;
24173;SDS011;12324;48.146;11.502;2023-06-22T06:09:14;13.30;;;5.80;;
24173;SDS011;12324;48.146;11.502;2023-06-22T06:11:41;20.05;;;7.70;;
24173;SDS011;12324;48.146;11.502;2023-06-22T06:14:08;12.85;;;6.15;;
24173;SDS011;12324;48.146;11.502;2023-06-22T06:16:35;13.63;;;5.70;;
24173;SDS011;12324;48.146;11.502;2023-06-22T06:19:02;15.70;;;6.30;;
24173;SDS011;12324;48.146;11.502;2023-06-22T06:21:28;15.18;;;5.55;;
24173;SDS011;12324;48.146;11.502;2023-06-22T06:23:56;13.43;;;5.72;;
24173;SDS011;12324;48.146;11.502;2023-06-22T06:26:23;17.25;;;7.20;;
24173;SDS011;12324;48.146;11.502;2023-06-22T06:28:54;14.13;;;5.95;;
24173;SDS011;12324;48.146;11.502;2023-06-22T06:31:22;13.95;;;6.03;;
24173;SDS011;12324;48.146;11.502;2023-06-22T06:33:49;15.15;;;6.32;;
24173;SDS011;12324;48.146;11.502;2023-06-22T06:36:16;12.10;;;5.28;;
24173;SDS011;12324;48.146;11.502;2023-06-22T06:38:43;15.20;;;6.03;;
24173;SDS011;12324;48.146;11.502;2023-06-22T06:41:10;11.35;;;5.20;;
24173;SDS011;12324;48.146;11.502;2023-06-22T06:43:37;14.43;;;6.55;;
24173;SDS011;12324;48.146;11.502;2023-06-22T06:46:03;11.85;;;5.60;;
24173;SDS011;12324;48.146;11.502;2023-06-22T06:48:30;13.93;;;6.78;;
24173;SDS011;12324;48.146;11.502;2023-06-22T06:50:57;14.48;;;5.75;;
24173;SDS011;12324;48.146;11.502;2023-06-22T06:53:24;11.30;;;5.60;;
24173;SDS011;12324;48.146;11.502;2023-06-22T06:55:51;11.90;;;5.72;;
24173;SDS011;12324;48.146;11.502;2023-06-22T06:58:17;12.40;;;5.93;;
24173;SDS011;12324;48.146;11.502;2023-06-22T07:00:44;13.23;;;5.68;;
24173;SDS011;12324;48.146;11.502;2023-06-22T07:03:11;10.75;;;5.30;;
24173;SDS011;12324;48.146;11.502;2023-06-22T07:05:38;14.85;;;6.20;;
24173;SDS011;12324;48.146;11.502;2023-06-22T07:08:04;14.80;;;5.85;;
24173;SDS011;12324;48.146;11.502;2023-06-22T07:10:31;11.13;;;6.10;;
24173;SDS011;12324;48.146;11.502;2023-06-22T07:12:58;13.35;;;5.78;;
24173;SDS011;12324;48.146;11.502;2023-06-22T07:15:25;15.18;;;6.30;;
24173;SDS011;12324;48.146;11.502;2023-06-22T07:17:51;10.85;;;5.63;;
24173;SDS011;12324;48.146;11.502;2023-06-22T07:20:18;13.75;;;5.28;;
24173;SDS011;12324;48.146;11.502;2023-06-22T07:22:46;14.82;;;6.60;;
24173;SDS011;12324;48.146;11.502;2023-06-22T07:25:13;12.25;;;5.80;;
24173;SDS011;12324;48.146;11.502;2023-06-22T07:27:45;15.18;;;6.63;;
24173;SDS011;12324;48.146;11.502;2023-06-22T07:30:13;14.32;;;5.93;;
24173;SDS011;12324;48.146;11.502;2023-06-22T07:32:40;14.35;;;5.50;;
24173;SDS011;12324;48.146;11.502;2023-06-22T07:35:07;14.27;;;5.95;;
24173;SDS011;12324;48.146;11.502;2023-06-22T07:37:34;13.23;;;5.90;;
24173;SDS011;12324;48.146;11.502;2023-06-22T07:40:01;14.75;;;6.25;;
24173;SDS011;12324;48.146;11.502;2023-06-22T07:42:32;14.13;;;6.18;;
24173;SDS011;12324;48.146;11.502;2023-06-22T07:44:59;14.90;;;6.43;;
24173;SDS011;12324;48.146;11.502;2023-06-22T07:47:28;15.77;;;6.85;;
24173;SDS011;12324;48.146;11.502;2023-06-22T07:50:04;16.75;;;6.80;;
24173;SDS011;12324;48.146;11.502;2023-06-22T07:52:31;15.23;;;5.97;;
24173;SDS011;12324;48.146;11.502;2023-06-22T07:54:58;12.70;;;5.93;;
24173;SDS011;12324;48.146;11.502;2023-06-22T07:57:25;14.38;;;6.55;;
24173;SDS011;12324;48.146;11.502;2023-06-22T07:59:59;13.27;;;6.25;;
24173;SDS011;12324;48.146;11.502;2023-06-22T08:02:26;15.35;;;6.63;;
24173;SDS011;12324;48.146;11.502;2023-06-22T08:04:53;14.18;;;6.82;;
24173;SDS011;12324;48.146;11.502;2023-06-22T08:07:36;12.68;;;5.65;;
24173;SDS011;12324;48.146;11.502;2023-06-22T08:10:04;14.98;;;7.25;;
24173;SDS011;12324;48.146;11.502;2023-06-22T08:12:31;11.55;;;5.95;;
24173;SDS011;12324;48.146;11.502;2023-06-22T08:14:59;14.63;;;6.30;;
24173;SDS011;12324;48.146;11.502;2023-06-22T08:17:33;9.50;;;5.28;;
24173;SDS011;12324;48.146;11.502;2023-06-22T08:19:59;15.75;;;6.55;;
24173;SDS011;12324;48.146;11.502;2023-06-22T08:22:26;17.95;;;6.68;;
24173;SDS011;12324;48.146;11.502;2023-06-22T08:24:53;15.27;;;6.68;;
24173;SDS011;12324;48.146;11.502;2023-06-22T08:27:20;15.50;;;6.65;;
24173;SDS011;12324;48.146;11.502;2023-06-22T08:29:49;13.20;;;6.03;;
24173;SDS011;12324;48.146;11.502;2023-06-22T08:32:17;12.52;;;6.28;;
24173;SDS011;12324;48.146;11.502;2023-06-22T08:34:44;16.58;;;6.75;;
24173;SDS011;12324;48.146;11.502;2023-06-22T08:37:11;12.32;;;5.95;;
24173;SDS011;12324;48.146;11.502;2023-06-22T08:39:37;17.98;;;6.05;;
24173;SDS011;12324;48.146;11.502;2023-06-22T08:42:05;13.95;;;5.82;;
24173;SDS011;12324;48.146;11.502;2023-06-22T08:44:32;13.68;;;6.35;;
24173;SDS011;12324;48.146;11.502;2023-06-22T08:46:58;17.33;;;6.80;;
24173;SDS011;12324;48.146;11.502;2023-06-22T08:49:25;13.63;;;6.07;;
24173;SDS011;12324;48.146;11.502;2023-06-22T08:51:52;14.48;;;5.60;;
24173;SDS011;12324;48.146;11.502;2023-06-22T08:54:22;17.35;;;6.93;;
24173;SDS011;12324;48.146;11.502;2023-06-22T08:56:49;16.35;;;7.07;;
24173;SDS011;12324;48.146;11.502;2023-06-22T08:59:16;18.55;;;6.32;;
24173;SDS011;12324;48.146;11.502;2023-06-22T09:01:42;13.00;;;5.63;;
24173;SDS011;12324;48.146;11.502;2023-06-22T09:04:11;11.73;;;5.55;;
24173;SDS011;12324;48.146;11.502;2023-06-22T09:06:38;17.85;;;6.25;;
24173;SDS011;12324;48.146;11.502;2023-06-22T09:09:11;15.45;;;7.32;;
24173;SDS011;12324;48.146;11.502;2023-06-22T09:11:39;13.95;;;7.13;;
24173;SDS011;12324;48.146;11.502;2023-06-22T09:14:05;11.57;;;5.88;;
24173;SDS011;12324;48.146;11.502;2023-06-22T09:16:33;14.95;;;6.45;;
24173;SDS011;12324;48.146;11.502;2023-06-22T09:19:00;14.02;;;5.43;;
24173;SDS011;12324;48.146;11.502;2023-06-22T09:21:27;13.82;;;5.78;;
24173;SDS011;12324;48.146;11.502;2023-06-22T09:23:54;13.50;;;5.53;;
24173;SDS011;12324;48.146;11.502;2023-06-22T09:26:21;17.40;;;6.90;;
24173;SDS011;12324;48.146;11.502;2023-06-22T09:28:49;16.52;;;6.38;;
24173;SDS011;12324;48.146;11.502;2023-06-22T09:31:16;18.85;;;5.72;;
24173;SDS011;12324;48.146;11.502;2023-06-22T09:33:43;12.68;;;6.20;;
24173;SDS011;12324;48.146;11.502;2023-06-22T09:36:10;13.43;;;6.40;;
24173;SDS011;12324;48.146;11.502;2023-06-22T09:38:37;18.08;;;6.88;;
24173;SDS011;12324;48.146;11.502;2023-06-22T09:41:04;12.57;;;6.28;;
24173;SDS011;12324;48.146;11.502;2023-06-22T09:43:32;13.32;;;5.93;;
24173;SDS011;12324;48.146;11.502;2023-06-22T09:46:04;13.47;;;5.87;;
24173;SDS011;12324;48.146;11.502;2023-06-22T09:48:31;13.05;;;6.47;;
24173;SDS011;12324;48.146;11.502;2023-06-22T09:50:58;12.93;;;5.28;;
24173;SDS011;12324;48.146;11.502;2023-06-22T09:53:25;14.80;;;6.72;;
24173;SDS011;12324;48.146;11.502;2023-06-22T09:55:52;13.48;;;6.55;;
24173;SDS011;12324;48.146;11.502;2023-06-22T09:58:19;13.95;;;5.85;;
24173;SDS011;12324;48.146;11.502;2023-06-22T10:00:46;15.23;;;5.80;;
24173;SDS011;12324;48.146;11.502;2023-06-22T10:03:13;18.83;;;6.80;;
24173;SDS011;12324;48.146;11.502;2023-06-22T10:05:40;11.88;;;5.82;;
24173;SDS011;12324;48.146;11.502;2023-06-22T10:08:07;13.57;;;5.53;;
24173;SDS011;12324;48.146;11.502;2023-06-22T10:10:35;11.68;;;5.80;;
24173;SDS011;12324;48.146;11.502;2023-06-22T10:13:10;14.50;;;6.15;;
24173;SDS011;12324;48.146;11.502;2023-06-22T10:15:37;13.13;;;5.65;;
24173;SDS011;12324;48.146;11.502;2023-06-22T10:18:05;14.80;;;6.40;;
24173;SDS011;12324;48.146;11.502;2023-06-22T10:20:32;13.43;;;5.95;;
24173;SDS011;12324;48.146;11.502;2023-06-22T10:22:59;10.80;;;5.68;;
24173;SDS011;12324;48.146;11.502;2023-06-22T10:25:26;11.20;;;5.55;;
24173;SDS011;12324;48.146;11.502;2023-06-22T10:27:53;15.98;;;5.60;;
24173;SDS011;12324;48.146;11.502;2023-06-22T10:30:21;18.13;;;6.53;;
24173;SDS011;12324;48.146;11.502;2023-06-22T10:32:48;16.65;;;7.10;;
24173;SDS011;12324;48.146;11.502;2023-06-22T10:35:15;12.38;;;6.10;;
24173;SDS011;12324;48.146;11.502;2023-06-22T10:37:46;12.90;;;5.82;;
24173;SDS011;12324;48.146;11.502;2023-06-22T10:40:13;14.73;;;6.60;;
24173;SDS011;12324;48.146;11.502;2023-06-22T10:42:42;17.23;;;6.40;;
24173;SDS011;12324;48.146;11.502;2023-06-22T10:45:09;14.55;;;6.50;;
24173;SDS011;12324;48.146;11.502;2023-06-22T10:47:36;12.07;;;5.55;;
24173;SDS011;12324;48.146;11.502;2023-06-22T10:50:03;14.25;;;6.18;;
24173;SDS011;12324;48.146;11.502;2023-06-22T10:52:30;17.20;;;6.85;;
24173;SDS011;12324;48.146;11.502;2023-06-22T10:54:57;15.57;;;6.32;;
24173;SDS011;12324;48.146;11.502;2023-06-22T10:57:24;15.02;;;6.20;;
24173;SDS011;12324;48.146;11.502;2023-06-22T10:59:50;14.48;;;6.43;;
24173;SDS011;12324;48.146;11.502;2023-06-22T11:02:17;15.93;;;6.55;;
24173;SDS011;12324;48.146;11.502;2023-06-22T11:04:44;12.88;;;6.03;;
24173;SDS011;12324;48.146;11.502;2023-06-22T11:07:12;12.43;;;6.13;;
24173;SDS011;12324;48.146;11.502;2023-06-22T11:09:39;12.48;;;5.72;;
24173;SDS011;12324;48.146;11.502;2023-06-22T11:12:06;10.60;;;5.47;;
24173;SDS011;12324;48.146;11.502;2023-06-22T11:14:33;13.23;;;5.78;;
24173;SDS011;12324;48.146;11.502;2023-06-22T11:17:00;15.20;;;6.60;;
24173;SDS011;12324;48.146;11.502;2023-06-22T11:19:26;17.67;;;6.40;;
24173;SDS011;12324;48.146;11.502;2023-06-22T11:21:53;15.15;;;6.20;;
24173;SDS011;12324;48.146;11.502;2023-06-22T11:24:20;13.32;;;6.28;;
24173;SDS011;12324;48.146;11.502;2023-06-22T11:26:47;11.80;;;5.35;;
24173;SDS011;12324;48.146;11.502;2023-06-22T11:29:14;13.45;;;6.82;;
24173;SDS011;12324;48.146;11.502;2023-06-22T11:31:57;11.00;;;5.47;;
24173;SDS011;12324;48.146;11.502;2023-06-22T11:34:24;13.68;;;6.30;;
24173;SDS011;12324;48.146;11.502;2023-06-22T11:36:51;11.50;;;5.35;;
24173;SDS011;12324;48.146;11.502;2023-06-22T11:39:17;19.10;;;5.75;;
24173;SDS011;12324;48.146;11.502;2023-06-22T11:41:55;14.48;;;6.40;;
24173;SDS011;12324;48.146;11.502;2023-06-22T11:44:21;13.13;;;6.45;;
24173;SDS011;12324;48.146;11.502;2023-06-22T11:46:48;11.23;;;5.68;;
24173;SDS011;12324;48.146;11.502;2023-06-22T11:49:15;12.27;;;6.18;;
24173;SDS011;12324;48.146;11.502;2023-06-22T11:51:42;14.10;;;6.18;;
24173;SDS011;12324;48.146;11.502;2023-06-22T11:54:08;12.82;;;5.90;;
24173;SDS011;12324;48.146;11.502;2023-06-22T11:56:35;15.57;;;6.68;;
24173;SDS011;12324;48.146;11.502;2023-06-22T11:59:02;11.30;;;5.70;;
24173;SDS011;12324;48.146;11.502;2023-06-22T12:01:29;10.82;;;5.93;;
24173;SDS011;12324;48.146;11.502;2023-06-22T12:03:56;15.48;;;6.25;;
24173;SDS011;12324;48.146;11.502;2023-06-22T12:06:23;10.98;;;5.65;;
24173;SDS011;12324;48.146;11.502;2023-06-22T12:08:50;9.82;;;5.30;;
24173;SDS011;12324;48.146;11.502;2023-06-22T12:11:17;12.35;;;5.65;;
24173;SDS011;12324;48.146;11.502;2023-06-22T12:13:43;12.57;;;6.22;;
24173;SDS011;12324;48.146;11.502;2023-06-22T12:16:10;13.23;;;6.55;;
24173;SDS011;12324;48.146;11.502;2023-06-22T12:18:38;14.75;;;6.68;;
24173;SDS011;12324;48.146;11.502;2023-06-22T12:21:05;14.02;;;6.35;;
24173;SDS011;12324;48.146;11.502;2023-06-22T12:23:31;12.93;;;6.07;;
24173;SDS011;12324;48.146;11.502;2023-06-22T12:25:58;12.50;;;5.80;;
24173;SDS011;12324;48.146;11.502;2023-06-22T12:28:26;12.32;;;5.50;;
24173;SDS011;12324;48.146;11.502;2023-06-22T12:30:53;13.45;;;6.50;;
24173;SDS011;12324;48.146;11.502;2023-06-22T12:33:19;14.18;;;5.97;;
24173;SDS011;12324;48.146;11.502;2023-06-22T12:35:46;12.18;;;5.88;;
24173;SDS011;12324;48.146;11.502;2023-06-22T12:38:15;15.63;;;6.03;;
24173;SDS011;12324;48.146;11.502;2023-06-22T12:40:42;13.90;;;6.18;;
24173;SDS011;12324;48.146;11.502;2023-06-22T12:43:08;12.25;;;6.20;;
24173;SDS011;12324;48.146;11.502;2023-06-22T12:45:35;14.73;;;6.35;;
24173;SDS011;12324;48.146;11.502;2023-06-22T12:48:02;13.07;;;6.03;;
24173;SDS011;12324;48.146;11.502;2023-06-22T12:50:29;14.50;;;6.68;;
24173;SDS011;12324;48.146;11.502;2023-06-22T12:52:56;13.18;;;5.88;;
24173;SDS011;12324;48.146;11.502;2023-06-22T12:55:24;13.45;;;6.20;;
24173;SDS011;12324;48.146;11.502;2023-06-22T12:57:52;17.10;;;6.53;;
24173;SDS011;12324;48.146;11.502;2023-06-22T13:00:19;13.60;;;6.22;;
24173;SDS011;12324;48.146;11.502;2023-06-22T13:02:46;12.70;;;6.50;;
24173;SDS011;12324;48.146;11.502;2023-06-22T13:05:14;13.88;;;6.65;;
24173;SDS011;12324;48.146;11.502;2023-06-22T13:07:41;13.18;;;6.10;;
24173;SDS011;12324;48.146;11.502;2023-06-22T13:10:09;14.32;;;6.13;;
24173;SDS011;12324;48.146;11.502;2023-06-22T13:12:35;14.23;;;6.57;;
24173;SDS011;12324;48.146;11.502;2023-06-22T13:15:02;14.52;;;6.28;;
24173;SDS011;12324;48.146;11.502;2023-06-22T13:17:29;12.57;;;5.22;;
24173;SDS011;12324;48.146;11.502;2023-06-22T13:19:56;13.75;;;6.68;;
24173;SDS011;12324;48.146;11.502;2023-06-22T13:24:57;12.18;;;6.30;;
24173;SDS011;12324;48.146;11.502;2023-06-22T13:27:25;12.75;;;5.60;;
24173;SDS011;12324;48.146;11.502;2023-06-22T13:29:52;12.57;;;5.80;;
24173;SDS011;12324;48.146;11.502;2023-06-22T13:32:19;17.63;;;6.57;;
24173;SDS011;12324;48.146;11.502;2023-06-22T13:34:46;14.05;;;6.03;;
24173;SDS011;12324;48.146;11.502;2023-06-22T13:37:14;16.27;;;7.63;;
24173;SDS011;12324;48.146;11.502;2023-06-22T13:39:41;14.63;;;6.30;;
24173;SDS011;12324;48.146;11.502;2023-06-22T13:42:08;13.07;;;5.40;;
24173;SDS011;12324;48.146;11.502;2023-06-22T13:44:35;11.00;;;5.63;;
24173;SDS011;12324;48.146;11.502;2023-06-22T13:47:03;14.05;;;5.43;;
24173;SDS011;12324;48.146;11.502;2023-06-22T13:49:31;11.90;;;5.53;;
24173;SDS011;12324;48.146;11.502;2023-06-22T13:51:58;12.23;;;5.25;;
24173;SDS011;12324;48.146;11.502;2023-06-22T13:54:25;10.98;;;5.13;;
24173;SDS011;12324;48.146;11.502;2023-06-22T13:56:56;14.55;;;6.13;;
24173;SDS011;12324;48.146;11.502;2023-06-22T13:59:23;12.25;;;5.97;;
24173;SDS011;12324;48.146;11.502;2023-06-22T14:01:53;15.15;;;6.32;;
24173;SDS011;12324;48.146;11.502;2023-06-22T14:04:21;12.40;;;5.60;;
24173;SDS011;12324;48.146;11.502;2023-06-22T14:06:48;14.57;;;5.65;;
24173;SDS011;12324;48.146;11.502;2023-06-22T14:09:16;14.73;;;6.30;;
24173;SDS011;12324;48.146;11.502;2023-06-22T14:11:43;13.20;;;5.53;;
24173;SDS011;12324;48.146;11.502;2023-06-22T14:14:10;12.52;;;5.70;;
24173;SDS011;12324;48.146;11.502;2023-06-22T14:16:37;13.65;;;5.50;;
24173;SDS011;12324;48.146;11.502;2023-06-22T14:19:04;13.77;;;5.68;;
24173;SDS011;12324;48.146;11.502;2023-06-22T14:21:31;14.35;;;6.13;;
24173;SDS011;12324;48.146;11.502;2023-06-22T14:23:58;15.07;;;6.13;;
24173;SDS011;12324;48.146;11.502;2023-06-22T14:26:25;14.48;;;5.85;;
24173;SDS011;12324;48.146;11.502;2023-06-22T14:28:52;13.82;;;5.85;;
24173;SDS011;12324;48.146;11.502;2023-06-22T14:31:19;13.32;;;5.55;;
24173;SDS011;12324;48.146;11.502;2023-06-22T14:33:47;10.93;;;5.07;;
24173;SDS011;12324;48.146;11.502;2023-06-22T14:36:17;12.25;;;5.43;;